HECA/CAI METAR and TAF weather

Enter ICAO airport designator
Station Type Date Time Source
HECA METAR 2022/08/12 14:00 UTC NOAA

HECA 121400Z 35007KT CAVOK 33/16 Q1007 NOSIG


Station Type Date Time Source
HECA Decoded METAR 2022/08/12 14:00 UTC NOAA

Cairo Airport, Egypt (HECA) 30-08N 031-24E 74M
Aug 12, 2022 - 10:00 AM EDT / 2022.08.12 1400 UTC
Wind: from the N (350 degrees) at 8 MPH (7 KT):0
Visibility: greater than 7 mile(s):0
Temperature: 91 F (33 C)
Dew Point: 60 F (16 C)
Relative Humidity: 36%
Pressure (altimeter): 29.74 in. Hg (1007 hPa)
ob: HECA 121400Z 35007KT CAVOK 33/16 Q1007 NOSIG
cycle: 14

Station Type Date Time Source
HECA TAF 2022/08/12 12:46 UTC NOAA

TAF HECA 121100Z 1212/1318 36008KT CAVOK
TEMPO 1300/1308 VRB03KT 6000 NSC

Example: see airport list